Time;durP1;ratioP1;P1;durP2;ratioP2;P2;SDS_P1;SDS_P2;PMS_P1;PMS_P2;Temp;Humidity;BMP_temperature;BMP_pressure;BME280_temperature;BME280_humidity;BME280_pressure;Samples;Min_cycle;Max_cycle;Signal;HPM_P1;HPM_P2
2022/08/29 00:02:28;;;;;;;;;;;;;;;;;;10498101;28;19931;-64
2022/08/29 00:07:30;;;;;;;;;;;;;;;;;;10500302;28;19950;-64
2022/08/29 00:12:32;;;;;;;;;;;;;;;;;;10497590;28;19932;-64
2022/08/29 00:17:34;;;;;;;;;;;;;;;;;;10499502;28;19924;-64
2022/08/29 00:22:36;;;;;;;;;;;;;;;;;;10488411;28;20410;-64
2022/08/29 00:27:38;;;;;;;;;;;;;;;;;;10497514;28;19925;-64
2022/08/29 00:32:40;;;;;;;;;;;;;;;;;;10498413;28;19932;-64
2022/08/29 00:37:43;;;;;;;;;;;;;;;;;;10498943;28;19931;-64
2022/08/29 00:42:45;;;;;;;;;;;;;;;;;;10498061;28;20007;-64
2022/08/29 00:47:47;;;;;;;;;;;;;;;;;;10497876;28;19943;-64
2022/08/29 00:52:49;;;;;;;;;;;;;;;;;;10480781;28;19924;-64
2022/08/29 00:57:51;;;;;;;;;;;;;;;;;;10498036;28;19932;-64
2022/08/29 01:02:53;;;;;;;;;;;;;;;;;;10498108;28;19925;-64
2022/08/29 01:07:55;;;;;;;;;;;;;;;;;;10497069;28;19928;-64
2022/08/29 01:12:57;;;;;;;;;;;;;;;;;;10497261;28;19936;-64
2022/08/29 01:17:59;;;;;;;;;;;;;;;;;;10498200;28;19925;-64
2022/08/29 01:23:02;;;;;;;;;;;;;;;;;;10498729;28;19925;-64
2022/08/29 01:28:04;;;;;;;;;;;;;;;;;;10497102;28;19925;-63
2022/08/29 01:33:06;;;;;;;;;;;;;;;;;;10478422;28;19924;-64
2022/08/29 01:38:08;;;;;;;;;;;;;;;;;;10498202;28;20260;-64
2022/08/29 01:43:10;;;;;;;;;;;;;;;;;;10505811;28;19924;-64
2022/08/29 01:48:12;;;;;;;;;;;;;;;;;;10505677;28;19924;-64
2022/08/29 01:53:14;;;;;;;;;;;;;;;;;;10505236;28;19928;-64
2022/08/29 01:58:17;;;;;;;;;;;;;;;;;;10506115;28;19935;-64
2022/08/29 02:03:19;;;;;;;;;;;;;;;;;;10505292;28;19925;-64
2022/08/29 02:08:21;;;;;;;;;;;;;;;;;;10505668;28;19924;-64
2022/08/29 02:13:23;;;;;;;;;;;;;;;;;;10503515;28;19924;-64
2022/08/29 02:18:25;;;;;;;;;;;;;;;;;;10505283;28;19924;-64
2022/08/29 02:23:27;;;;;;;;;;;;;;;;;;10504479;28;20383;-64
2022/08/29 02:28:32;;;;;;;;;;;;;;;;;;10504085;28;19924;-64
2022/08/29 02:33:34;;;;;;;;;;;;;;;;;;10502991;28;19924;-64
2022/08/29 02:38:36;;;;;;;;;;;;;;;;;;10503765;28;20096;-64
2022/08/29 02:43:38;;;;;;;;;;;;;;;;;;10502788;28;19970;-64
2022/08/29 02:48:41;;;;;;;;;;;;;;;;;;10503590;28;20283;-64
2022/08/29 02:53:43;;;;;;;;;;;;;;;;;;10502969;28;19932;-64
2022/08/29 02:58:46;;;;;;;;;;;;;;;;;;10504453;28;19932;-64
2022/08/29 03:03:49;;;;;;;;;;;;;;;;;;10503604;28;19935;-64
2022/08/29 03:08:51;;;;;;;;;;;;;;;;;;10501899;28;20363;-63
2022/08/29 03:13:54;;;;;;;;;;;;;;;;;;10502176;28;19924;-64
2022/08/29 03:18:58;;;;;;;;;;;;;;;;;;10502439;28;20015;-64
2022/08/29 03:24:00;;;;;;;;;;;;;;;;;;10502226;28;19925;-63
2022/08/29 03:29:02;;;;;;;;;;;;;;;;;;10501556;28;19924;-63
2022/08/29 03:34:05;;;;;;;;;;;;;;;;;;10500158;28;19931;-63
2022/08/29 03:39:08;;;;;;;;;;;;;;;;;;10501576;28;19929;-64
2022/08/29 03:44:11;;;;;;;;;;;;;;;;;;10507479;22;19924;-63
2022/08/29 03:49:14;;;;;;;;;;;;;;;;;;10460590;28;19940;-64
2022/08/29 03:54:16;;;;;;;;;;;;;;;;;;10459188;28;19924;-63
2022/08/29 03:59:18;;;;;;;;;;;;;;;;;;10460057;28;19938;-63
2022/08/29 04:09:41;;;;;;;;;;;;;;;;;;10459644;28;19925;-63
2022/08/29 04:14:43;;;;;;;;;;;;;;;;;;10439981;28;19925;-63
2022/08/29 04:19:45;;;;;;;;;;;;;;;;;;10458600;28;19940;-63
2022/08/29 04:24:48;;;;;;;;;;;;;;;;;;10459067;28;19924;-63
2022/08/29 04:29:50;;;;;;;;;;;;;;;;;;10457871;28;19925;-64
2022/08/29 04:34:52;;;;;;;;;;;;;;;;;;10456637;28;19932;-63
2022/08/29 04:39:54;;;;;;;;;;;;;;;;;;10457858;28;20390;-63
2022/08/29 04:44:56;;;;;;;;;;;;;;;;;;10457550;28;20390;-63
2022/08/29 04:49:58;;;;;;;;;;;;;;;;;;10456216;28;19951;-63
2022/08/29 04:55:00;;;;;;;;;;;;;;;;;;10456870;28;19924;-63
2022/08/29 05:00:03;;;;;;;;;;;;;;;;;;10457249;28;19925;-63
2022/08/29 05:05:05;;;;;;;;;;;;;;;;;;10457924;28;19932;-64
2022/08/29 05:10:08;;;;;;;;;;;;;;;;;;10455917;28;19947;-63
2022/08/29 05:15:10;;;;;;;;;;;;;;;;;;10454996;28;19925;-63
2022/08/29 05:20:12;;;;;;;;;;;;;;;;;;10456793;28;19925;-64
2022/08/29 05:25:14;;;;;;;;;;;;;;;;;;10457265;28;19929;-63
2022/08/29 05:30:19;;;;;;;;;;;;;;;;;;10438319;28;19929;-63
2022/08/29 05:35:35;;;;;;;;;;;;;;;;;;10455276;28;19932;-64
2022/08/29 05:40:37;;;;;;;;;;;;;;;;;;10456337;28;19932;-63
2022/08/29 05:45:40;;;;;;;;;;;;;;;;;;10455436;28;19928;-63
2022/08/29 05:50:42;;;;;;;;;;;;;;;;;;10456704;28;19937;-63
2022/08/29 05:55:44;;;;;;;;;;;;;;;;;;10437951;28;19925;-64
2022/08/29 06:00:46;;;;;;;;;;;;;;;;;;10456651;28;19925;-64
2022/08/29 06:05:49;;;;;;;;;;;;;;;;;;10456371;28;19936;-63
2022/08/29 06:10:51;;;;;;;;;;;;;;;;;;10455324;28;19925;-65
2022/08/29 06:15:53;;;;;;;;;;;;;;;;;;10454457;28;19931;-64
2022/08/29 06:20:55;;;;;;;;;;;;;;;;;;10456178;28;20016;-64
2022/08/29 06:25:57;;;;;;;;;;;;;;;;;;10458951;28;19964;-64
2022/08/29 06:30:59;;;;;;;;;;;;;;;;;;10462762;28;19929;-64
2022/08/29 06:36:01;;;;;;;;;;;;;;;;;;10462151;28;19968;-64
2022/08/29 06:41:03;;;;;;;;;;;;;;;;;;10463020;28;19932;-64
2022/08/29 06:46:06;;;;;;;;;;;;;;;;;;10461547;28;19925;-64
2022/08/29 06:51:08;;;;;;;;;;;;;;;;;;10462754;28;19963;-64
2022/08/29 06:56:10;;;;;;;;;;;;;;;;;;10460858;28;19928;-64
2022/08/29 07:01:12;;;;;;;;;;;;;;;;;;10462381;28;19928;-64
2022/08/29 07:06:15;;;;;;;;;;;;;;;;;;10461535;28;19925;-64
2022/08/29 07:11:17;;;;;;;;;;;;;;;;;;10460366;28;20364;-64
2022/08/29 07:16:19;;;;;;;;;;;;;;;;;;10460243;28;20360;-64
2022/08/29 07:21:21;;;;;;;;;;;;;;;;;;10461569;28;19925;-64
2022/08/29 07:26:23;;;;;;;;;;;;;;;;;;10460406;28;19924;-64
2022/08/29 07:31:25;;;;;;;;;;;;;;;;;;10459610;28;19947;-64
2022/08/29 07:36:32;;;;;;;;;;;;;;;;;;10457616;28;19932;-64
2022/08/29 07:41:35;;;;;;;;;;;;;;;;;;10460886;28;19924;-64
2022/08/29 07:46:37;;;;;;;;;;;;;;;;;;10460436;28;19925;-65
2022/08/29 07:51:39;;;;;;;;;;;;;;;;;;10457962;28;19939;-65
2022/08/29 07:56:45;;;;;;;;;;;;;;;;;;10459127;28;19928;-65
2022/08/29 08:01:47;;;;;;;;;;;;;;;;;;10458345;28;19931;-65
2022/08/29 08:06:49;;;;;;;;;;;;;;;;;;10458886;28;19929;-65
2022/08/29 08:11:51;;;;;;;;;;;;;;;;;;10457413;28;19948;-65
2022/08/29 08:16:53;;;;;;;;;;;;;;;;;;10458041;28;19925;-65
2022/08/29 08:21:57;;;;;;;;;;;;;;;;;;10459061;28;19925;-65
2022/08/29 08:26:59;;;;;;;;;;;;;;;;;;10457791;28;19929;-65
2022/08/29 08:32:02;;;;;;;;;;;;;;;;;;10455270;28;20406;-65
2022/08/29 08:37:04;;;;;;;;;;;;;;;;;;10457425;28;19925;-65
2022/08/29 08:42:06;;;;;;;;;;;;;;;;;;10458339;28;19931;-65
2022/08/29 08:47:09;;;;;;;;;;;;;;;;;;10456521;28;19932;-65
2022/08/29 08:52:11;;;;;;;;;;;;;;;;;;10455519;28;19925;-65
2022/08/29 08:57:13;;;;;;;;;;;;;;;;;;10442506;28;19951;-65
2022/08/29 09:02:15;;;;;;;;;;;;;;;;;;10453958;28;19936;-65
2022/08/29 09:07:17;;;;;;;;;;;;;;;;;;10457551;28;19925;-70
2022/08/29 09:12:19;;;;;;;;;;;;;;;;;;10457471;28;19929;-69
2022/08/29 09:17:21;;;;;;;;;;;;;;;;;;10457080;28;19925;-70
2022/08/29 09:22:24;;;;;;;;;;;;;;;;;;10457208;28;19932;-69
2022/08/29 09:27:26;;;;;;;;;;;;;;;;;;10456468;28;19948;-69
2022/08/29 09:32:28;;;;;;;;;;;;;;;;;;10430908;28;20372;-69
2022/08/29 09:37:30;;;;;;;;;;;;;;;;;;10431809;28;19935;-69
2022/08/29 09:42:32;;;;;;;;;;;;;;;;;;10453864;28;19932;-70
2022/08/29 09:47:37;;;;;;;;;;;;;;;;;;10454609;28;20344;-70
2022/08/29 09:52:39;;;;;;;;;;;;;;;;;;10454328;28;19932;-70
2022/08/29 09:57:41;;;;;;;;;;;;;;;;;;10452452;28;19935;-70
2022/08/29 10:02:43;;;;;;;;;;;;;;;;;;10459194;28;19932;-70
2022/08/29 10:07:45;;;;;;;;;;;;;;;;;;10436371;28;20028;-70
2022/08/29 10:12:47;;;;;;;;;;;;;;;;;;10453767;28;19925;-70
2022/08/29 10:23:11;;;;;;;;;;;;;;;;;;10458401;28;19925;-69
2022/08/29 10:28:13;;;;;;;;;;;;;;;;;;10462494;28;19929;-68
2022/08/29 10:33:15;;;;;;;;;;;;;;;;;;10461000;28;20292;-69
2022/08/29 10:38:17;;;;;;;;;;;;;;;;;;10461286;28;19964;-69
2022/08/29 10:43:20;;;;;;;;;;;;;;;;;;10461050;28;20319;-69
2022/08/29 10:48:22;;;;;;;;;;;;;;;;;;10459695;28;19932;-69
2022/08/29 10:53:24;;;;;;;;;;;;;;;;;;10460487;28;19925;-68
2022/08/29 10:58:26;;;;;;;;;;;;;;;;;;10459906;28;19925;-70
2022/08/29 11:03:29;;;;;;;;;;;;;;;;;;10459418;28;19925;-70
2022/08/29 11:08:31;;;;;;;;;;;;;;;;;;10442183;28;20375;-70
2022/08/29 11:13:33;;;;;;;;;;;;;;;;;;10458182;28;19924;-70
2022/08/29 11:18:35;;;;;;;;;;;;;;;;;;10457784;28;20310;-69
2022/08/29 11:23:40;;;;;;;;;;;;;;;;;;10459625;28;20227;-69
2022/08/29 11:28:42;;;;;;;;;;;;;;;;;;10443296;28;19924;-70
2022/08/29 11:33:49;;;;;;;;;;;;;;;;;;10459074;28;19931;-70
2022/08/29 11:38:51;;;;;;;;;;;;;;;;;;10458750;28;19925;-70
2022/08/29 11:43:53;;;;;;;;;;;;;;;;;;10459597;28;19925;-70
2022/08/29 11:48:55;;;;;;;;;;;;;;;;;;10458952;28;19929;-71
2022/08/29 11:54:00;;;;;;;;;;;;;;;;;;10458361;28;19929;-71
2022/08/29 11:59:02;;;;;;;;;;;;;;;;;;10457229;28;20294;-70
2022/08/29 12:04:04;;;;;;;;;;;;;;;;;;10457803;28;20382;-70
2022/08/29 12:09:07;;;;;;;;;;;;;;;;;;10458859;28;19931;-70
2022/08/29 12:14:15;;;;;;;;;;;;;;;;;;10457702;28;19935;-69
2022/08/29 12:19:18;;;;;;;;;;;;;;;;;;10459503;28;19931;-70
2022/08/29 12:24:20;;;;;;;;;;;;;;;;;;10456798;28;19936;-70
2022/08/29 12:29:23;;;;;;;;;;;;;;;;;;10459105;28;19924;-70
2022/08/29 12:34:25;;;;;;;;;;;;;;;;;;10458057;28;19925;-70
2022/08/29 12:39:27;;;;;;;;;;;;;;;;;;10456450;28;19924;-71
2022/08/29 12:44:29;;;;;;;;;;;;;;;;;;10458162;28;19924;-69
2022/08/29 12:49:31;;;;;;;;;;;;;;;;;;10457661;28;19924;-70
2022/08/29 12:54:33;;;;;;;;;;;;;;;;;;10457963;28;19931;-71
2022/08/29 12:59:35;;;;;;;;;;;;;;;;;;10457788;28;19929;-71
2022/08/29 13:04:37;;;;;;;;;;;;;;;;;;10457245;28;20012;-71
2022/08/29 13:09:40;;;;;;;;;;;;;;;;;;10439440;28;19936;-70
2022/08/29 13:14:42;;;;;;;;;;;;;;;;;;10457471;28;19995;-71
2022/08/29 13:19:44;;;;;;;;;;;;;;;;;;10456806;28;20409;-70
2022/08/29 13:24:46;;;;;;;;;;;;;;;;;;10457240;28;19931;-70
2022/08/29 13:29:48;;;;;;;;;;;;;;;;;;10457233;28;19925;-71
2022/08/29 13:34:50;;;;;;;;;;;;;;;;;;10458065;28;20415;-71
2022/08/29 13:39:53;;;;;;;;;;;;;;;;;;10465653;28;19925;-71
2022/08/29 13:44:55;;;;;;;;;;;;;;;;;;10462468;28;19929;-70
2022/08/29 13:49:57;;;;;;;;;;;;;;;;;;10464909;28;19932;-71
2022/08/29 13:54:59;;;;;;;;;;;;;;;;;;10464892;28;19925;-70
2022/08/29 14:00:02;;;;;;;;;;;;;;;;;;10464889;28;19925;-72
2022/08/29 14:05:04;;;;;;;;;;;;;;;;;;10464688;28;19925;-71
2022/08/29 14:10:06;;;;;;;;;;;;;;;;;;10463851;28;19924;-71
2022/08/29 14:15:09;;;;;;;;;;;;;;;;;;10464090;28;20358;-71
2022/08/29 14:20:11;;;;;;;;;;;;;;;;;;10446910;28;19925;-71
2022/08/29 14:25:13;;;;;;;;;;;;;;;;;;10463258;28;20376;-71
2022/08/29 14:30:15;;;;;;;;;;;;;;;;;;10441740;28;19925;-71
2022/08/29 14:35:18;;;;;;;;;;;;;;;;;;10422136;28;19925;-71
2022/08/29 14:40:27;;;;;;;;;;;;;;;;;;10421562;28;19924;-70
2022/08/29 14:45:30;;;;;;;;;;;;;;;;;;10443464;28;19948;-70
2022/08/29 14:50:32;;;;;;;;;;;;;;;;;;10462891;28;19928;-71
2022/08/29 14:55:35;;;;;;;;;;;;;;;;;;10462558;28;19925;-71
2022/08/29 15:00:37;;;;;;;;;;;;;;;;;;10459782;28;19939;-72
2022/08/29 15:05:41;;;;;;;;;;;;;;;;;;10461684;28;19925;-72
2022/08/29 15:10:43;;;;;;;;;;;;;;;;;;10458871;28;20375;-71
2022/08/29 15:15:45;;;;;;;;;;;;;;;;;;10458203;28;19967;-72
2022/08/29 15:20:47;;;;;;;;;;;;;;;;;;10460098;28;19961;-72
2022/08/29 15:25:50;;;;;;;;;;;;;;;;;;10461603;28;19936;-71
2022/08/29 15:30:53;;;;;;;;;;;;;;;;;;10461401;28;19925;-70
2022/08/29 15:35:55;;;;;;;;;;;;;;;;;;10461090;28;19924;-71
2022/08/29 15:40:57;;;;;;;;;;;;;;;;;;10460539;28;20272;-70
2022/08/29 15:45:59;;;;;;;;;;;;;;;;;;10460212;28;19924;-71
2022/08/29 15:51:01;;;;;;;;;;;;;;;;;;10458545;28;19924;-72
2022/08/29 15:56:03;;;;;;;;;;;;;;;;;;10457508;28;19924;-71
2022/08/29 16:01:06;;;;;;;;;;;;;;;;;;10484131;22;19925;-68
2022/08/29 16:06:08;;;;;;;;;;;;;;;;;;10501917;28;19959;-69
2022/08/29 16:11:10;;;;;;;;;;;;;;;;;;10501168;28;19932;-68
2022/08/29 16:16:13;;;;;;;;;;;;;;;;;;10500895;28;19925;-68
2022/08/29 16:21:15;;;;;;;;;;;;;;;;;;10500753;28;19975;-69
2022/08/29 16:26:21;;;;;;;;;;;;;;;;;;10500591;28;19924;-69
2022/08/29 16:31:23;;;;;;;;;;;;;;;;;;10500349;28;19932;-61
2022/08/29 16:36:26;;;;;;;;;;;;;;;;;;10499421;28;19924;-61
2022/08/29 16:41:28;;;;;;;;;;;;;;;;;;10499937;28;19924;-61
2022/08/29 16:46:30;;;;;;;;;;;;;;;;;;10499693;28;19924;-61
2022/08/29 16:51:32;;;;;;;;;;;;;;;;;;10499771;28;19972;-61
2022/08/29 16:56:34;;;;;;;;;;;;;;;;;;10499258;28;20394;-61
2022/08/29 17:01:36;;;;;;;;;;;;;;;;;;10497835;28;20317;-61
2022/08/29 17:06:38;;;;;;;;;;;;;;;;;;10498196;28;20294;-61
2022/08/29 17:16:43;;;;;;;;;;;;;;;;;;10498860;28;19924;-61
2022/08/29 17:21:45;;;;;;;;;;;;;;;;;;10498841;28;19968;-61
2022/08/29 17:26:47;;;;;;;;;;;;;;;;;;10498492;28;19928;-61
2022/08/29 17:31:49;;;;;;;;;;;;;;;;;;10494764;28;20406;-62
2022/08/29 17:36:51;;;;;;;;;;;;;;;;;;10495167;28;19935;-62
2022/08/29 17:41:53;;;;;;;;;;;;;;;;;;10498334;28;20007;-61
2022/08/29 17:46:55;;;;;;;;;;;;;;;;;;10498362;28;19924;-61
2022/08/29 17:51:57;;;;;;;;;;;;;;;;;;10497188;28;20314;-61
2022/08/29 17:56:59;;;;;;;;;;;;;;;;;;10496328;28;19925;-61
2022/08/29 18:02:02;;;;;;;;;;;;;;;;;;10519887;28;19928;-66
2022/08/29 18:07:04;;;;;;;;;;;;;;;;;;10510099;28;19961;-67
2022/08/29 18:12:06;;;;;;;;;;;;;;;;;;10497482;28;20241;-68
2022/08/29 18:17:08;;;;;;;;;;;;;;;;;;10496789;28;19924;-68
2022/08/29 18:22:10;;;;;;;;;;;;;;;;;;10500504;28;19930;-68
2022/08/29 18:27:12;;;;;;;;;;;;;;;;;;10503571;28;19925;-68
2022/08/29 18:32:14;;;;;;;;;;;;;;;;;;10504376;28;20268;-68
2022/08/29 18:37:16;;;;;;;;;;;;;;;;;;10504636;28;19925;-68
2022/08/29 18:42:18;;;;;;;;;;;;;;;;;;10503158;28;19925;-68
2022/08/29 18:47:40;;;;;;;;;;;;;;;;;;10504419;28;19931;-62
2022/08/29 18:52:42;;;;;;;;;;;;;;;;;;10504070;28;19935;-62
2022/08/29 18:57:45;;;;;;;;;;;;;;;;;;10503319;28;20358;-62
2022/08/29 19:02:47;;;;;;;;;;;;;;;;;;10503239;28;20368;-62
2022/08/29 19:07:50;;;;;;;;;;;;;;;;;;10503821;28;19925;-62
2022/08/29 19:12:52;;;;;;;;;;;;;;;;;;10503603;28;19934;-62
2022/08/29 19:17:54;;;;;;;;;;;;;;;;;;10503323;28;19925;-62
2022/08/29 19:22:56;;;;;;;;;;;;;;;;;;10503242;28;19925;-62
2022/08/29 19:27:58;;;;;;;;;;;;;;;;;;10502530;28;19924;-61
2022/08/29 19:33:00;;;;;;;;;;;;;;;;;;10501048;28;20003;-62
2022/08/29 19:38:03;;;;;;;;;;;;;;;;;;10498540;28;19932;-62
2022/08/29 19:43:05;;;;;;;;;;;;;;;;;;10499860;28;20397;-62
2022/08/29 19:48:16;;;;;;;;;;;;;;;;;;10501380;28;19924;-61
2022/08/29 19:53:18;;;;;;;;;;;;;;;;;;10500060;28;19924;-62
2022/08/29 19:58:27;;;;;;;;;;;;;;;;;;10502280;28;19924;-62
2022/08/29 20:03:32;;;;;;;;;;;;;;;;;;10500265;28;19974;-62
2022/08/29 20:08:34;;;;;;;;;;;;;;;;;;10483077;28;19925;-62
2022/08/29 20:13:38;;;;;;;;;;;;;;;;;;10500133;28;19924;-62
2022/08/29 20:18:40;;;;;;;;;;;;;;;;;;10482296;28;19925;-62
2022/08/29 20:23:46;;;;;;;;;;;;;;;;;;10500234;28;19925;-62
2022/08/29 20:28:51;;;;;;;;;;;;;;;;;;10500366;28;19924;-62
2022/08/29 20:33:53;;;;;;;;;;;;;;;;;;10497691;28;19925;-62
2022/08/29 20:38:55;;;;;;;;;;;;;;;;;;10500258;28;19930;-62
2022/08/29 20:43:57;;;;;;;;;;;;;;;;;;10496535;28;20287;-62
2022/08/29 20:49:00;;;;;;;;;;;;;;;;;;10499674;28;19925;-62
2022/08/29 20:54:02;;;;;;;;;;;;;;;;;;10498672;28;19929;-62
2022/08/29 20:59:04;;;;;;;;;;;;;;;;;;10499287;28;19925;-62
2022/08/29 21:09:27;;;;;;;;;;;;;;;;;;10497447;28;20402;-62
2022/08/29 21:14:29;;;;;;;;;;;;;;;;;;10479683;28;19924;-62
2022/08/29 21:19:33;;;;;;;;;;;;;;;;;;10498308;28;20395;-62
2022/08/29 21:24:35;;;;;;;;;;;;;;;;;;10495552;28;20367;-62
2022/08/29 21:29:37;;;;;;;;;;;;;;;;;;10498707;28;20260;-62
2022/08/29 21:34:39;;;;;;;;;;;;;;;;;;10496883;28;19931;-62
2022/08/29 21:39:44;;;;;;;;;;;;;;;;;;10497673;28;19928;-62
2022/08/29 21:44:46;;;;;;;;;;;;;;;;;;10480190;28;19949;-62
2022/08/29 21:49:50;;;;;;;;;;;;;;;;;;10498474;28;19925;-62
2022/08/29 21:54:53;;;;;;;;;;;;;;;;;;10496544;28;19928;-62
2022/08/29 21:59:55;;;;;;;;;;;;;;;;;;10505701;28;19925;-62
2022/08/29 22:04:57;;;;;;;;;;;;;;;;;;10505356;28;19924;-62
2022/08/29 22:09:59;;;;;;;;;;;;;;;;;;10505441;28;20291;-62
2022/08/29 22:20:38;;;;;;;;;;;;;;;;;;10472418;28;19931;-62
2022/08/29 22:25:40;;;;;;;;;;;;;;;;;;10504759;28;19924;-62
2022/08/29 22:30:42;;;;;;;;;;;;;;;;;;10503932;28;19928;-62
2022/08/29 22:35:45;;;;;;;;;;;;;;;;;;10503356;28;19924;-62
2022/08/29 22:40:47;;;;;;;;;;;;;;;;;;10504788;28;19924;-62
2022/08/29 22:45:49;;;;;;;;;;;;;;;;;;10504644;28;19931;-62
2022/08/29 22:50:51;;;;;;;;;;;;;;;;;;10503167;28;19947;-62
2022/08/29 22:55:59;;;;;;;;;;;;;;;;;;10502631;28;19967;-62
2022/08/29 23:01:01;;;;;;;;;;;;;;;;;;10502592;28;20386;-62
2022/08/29 23:06:03;;;;;;;;;;;;;;;;;;10503710;28;19928;-62
2022/08/29 23:11:06;;;;;;;;;;;;;;;;;;10503727;28;19925;-62
2022/08/29 23:16:08;;;;;;;;;;;;;;;;;;10500644;28;19932;-62
2022/08/29 23:21:11;;;;;;;;;;;;;;;;;;10501773;28;19931;-62
2022/08/29 23:26:13;;;;;;;;;;;;;;;;;;10501600;28;19933;-62
2022/08/29 23:31:15;;;;;;;;;;;;;;;;;;10502924;28;19930;-62
2022/08/29 23:36:17;;;;;;;;;;;;;;;;;;10501623;28;19925;-62
2022/08/29 23:41:19;;;;;;;;;;;;;;;;;;10501057;28;19924;-62
2022/08/29 23:46:21;;;;;;;;;;;;;;;;;;10502331;28;19925;-62
2022/08/29 23:51:24;;;;;;;;;;;;;;;;;;10502575;28;19924;-62
2022/08/29 23:56:26;;;;;;;;;;;;;;;;;;10500805;28;19925;-62
